createdAt,value
2019-01-04T00:00:40.692Z,103500.74
2019-01-04T00:03:09.576Z,103498.49
2019-01-04T00:05:38.516Z,103497.68
2019-01-04T00:08:07.410Z,103500.30
2019-01-04T00:10:36.300Z,103504.44
2019-01-04T00:13:05.155Z,103499.42
2019-01-04T00:15:34.051Z,103491.25
2019-01-04T00:18:02.961Z,103490.44
2019-01-04T00:20:31.845Z,103488.88
2019-01-04T00:23:00.711Z,103495.73
2019-01-04T00:25:29.615Z,103492.12
2019-01-04T00:27:58.507Z,103485.37
2019-01-04T00:30:27.410Z,103491.10
2019-01-04T00:32:56.295Z,103481.72
2019-01-04T00:35:25.180Z,103488.88
2019-01-04T00:37:54.083Z,103491.05
2019-01-04T00:40:22.973Z,103478.66
2019-01-04T00:42:51.871Z,103492.01
2019-01-04T00:45:20.732Z,103496.66
2019-01-04T00:47:49.620Z,103492.67
2019-01-04T00:50:18.510Z,103498.00
2019-01-04T00:52:47.400Z,103494.01
2019-01-04T00:55:43.097Z,103496.72
2019-01-04T00:59:14.684Z,103496.80
2019-01-04T01:02:08.800Z,103497.60
2019-01-04T01:05:27.589Z,103497.09
2019-01-04T01:08:47.198Z,103479.66
2019-01-04T01:11:50.708Z,103480.17
2019-01-04T01:15:04.988Z,103473.39
2019-01-04T01:17:57.521Z,103480.95
2019-01-04T01:20:58.966Z,103483.66
2019-01-04T01:24:01.640Z,103490.28
2019-01-04T01:26:59.193Z,103492.03
2019-01-04T01:29:53.384Z,103495.59
2019-01-04T01:33:07.887Z,103508.09
2019-01-04T01:35:59.520Z,103510.80
2019-01-04T01:39:16.087Z,103513.44
2019-01-04T01:42:32.479Z,103519.63
2019-01-04T01:45:39.887Z,103517.77
2019-01-04T01:48:30.803Z,103513.25
2019-01-04T01:51:28.456Z,103519.02
2019-01-04T01:53:57.357Z,103517.97
2019-01-04T01:56:26.255Z,103515.85
2019-01-04T01:58:55.148Z,103502.44
2019-01-04T02:01:24.029Z,103505.58
2019-01-04T02:03:53.118Z,103509.20
2019-01-04T02:06:22.038Z,103504.60
2019-01-04T02:08:50.909Z,103506.83
2019-01-04T02:11:19.824Z,103496.48
2019-01-04T02:13:48.755Z,103493.39
2019-01-04T02:16:17.603Z,103490.25
2019-01-04T02:18:46.517Z,103490.73
2019-01-04T02:21:15.386Z,103495.22
2019-01-04T02:23:44.265Z,103486.83
2019-01-04T02:26:13.139Z,103488.63
2019-01-04T02:28:42.054Z,103482.80
2019-01-04T02:31:10.927Z,103485.52
2019-01-04T02:33:39.808Z,103486.45
2019-01-04T02:36:08.742Z,103489.94
2019-01-04T02:38:37.618Z,103488.65
2019-01-04T02:41:06.549Z,103495.13
2019-01-04T02:43:35.423Z,103489.20
2019-01-04T02:46:04.362Z,103489.31
2019-01-04T02:48:33.221Z,103487.80
2019-01-04T02:51:02.122Z,103486.45
2019-01-04T02:53:31.021Z,103493.02
2019-01-04T02:55:59.918Z,103483.31
2019-01-04T02:58:28.816Z,103488.41
2019-01-04T03:00:57.690Z,103484.92
2019-01-04T03:03:26.589Z,103490.23
2019-01-04T03:05:55.471Z,103497.94
2019-01-04T03:08:24.378Z,103495.68
2019-01-04T03:10:53.271Z,103488.48
2019-01-04T03:13:22.178Z,103491.57
2019-01-04T03:15:51.048Z,103492.94
2019-01-04T03:18:19.932Z,103494.28
2019-01-04T03:20:48.824Z,103488.91
2019-01-04T03:23:17.712Z,103486.20
2019-01-04T03:25:46.612Z,103483.92
2019-01-04T03:28:15.508Z,103475.95
2019-01-04T03:30:44.400Z,103478.72
2019-01-04T03:33:13.287Z,103471.16
2019-01-04T03:35:42.169Z,103467.91
2019-01-04T03:38:11.055Z,103460.47
2019-01-04T03:40:39.950Z,103453.39
2019-01-04T03:43:08.846Z,103440.55
2019-01-04T03:45:37.744Z,103444.15
2019-01-04T03:48:06.641Z,103448.14
2019-01-04T03:50:35.544Z,103447.23
2019-01-04T03:53:04.442Z,103439.64
2019-01-04T03:55:33.325Z,103431.92
2019-01-04T03:58:02.222Z,103419.39
2019-01-04T04:00:31.126Z,103417.55
2019-01-04T04:03:00.011Z,103415.72
2019-01-04T04:05:28.898Z,103417.42
2019-01-04T04:07:57.764Z,103421.88
2019-01-04T04:10:26.632Z,103425.78
2019-01-04T04:12:55.519Z,103421.30
2019-01-04T04:15:24.399Z,103417.30
2019-01-04T04:17:53.290Z,103416.27
2019-01-04T04:20:22.188Z,103406.41
2019-01-04T04:22:51.066Z,103400.94
2019-01-04T04:25:19.978Z,103396.72
2019-01-04T04:27:48.881Z,103401.20
2019-01-04T04:30:17.746Z,103398.91
2019-01-04T04:32:46.642Z,103396.61
2019-01-04T04:35:15.484Z,103389.60
2019-01-04T04:37:44.388Z,103388.30
2019-01-04T04:40:13.264Z,103385.33
2019-01-04T04:42:42.199Z,103397.70
2019-01-04T04:45:11.071Z,103395.05
2019-01-04T04:47:39.988Z,103392.48
2019-01-04T04:50:08.900Z,103393.55
2019-01-04T04:52:37.781Z,103391.05
2019-01-04T04:55:06.750Z,103390.16
2019-01-04T04:57:35.640Z,103388.89
2019-01-04T05:00:05.285Z,103387.47
2019-01-04T05:02:34.168Z,103390.16
2019-01-04T05:05:03.081Z,103395.53
2019-01-04T05:07:32.034Z,103394.16
2019-01-04T05:10:00.927Z,103391.50
2019-01-04T05:12:29.803Z,103381.21
2019-01-04T05:14:58.723Z,103372.69
2019-01-04T05:17:27.606Z,103384.99
2019-01-04T05:19:56.515Z,103384.19
2019-01-04T05:22:25.525Z,103388.30
2019-01-04T05:24:54.433Z,103395.48
2019-01-04T05:27:23.295Z,103403.00
2019-01-04T05:29:52.173Z,103412.42
2019-01-04T05:32:21.048Z,103414.58
2019-01-04T05:34:49.954Z,103415.61
2019-01-04T05:37:18.839Z,103402.70
2019-01-04T05:39:47.719Z,103405.39
2019-01-04T05:42:16.619Z,103398.70
2019-01-04T05:44:45.500Z,103392.79
2019-01-04T05:47:14.406Z,103385.72
2019-01-04T05:49:43.280Z,103386.67
2019-01-04T05:52:12.179Z,103379.00
2019-01-04T05:54:41.066Z,103366.91
2019-01-04T05:57:10.015Z,103364.83
2019-01-04T05:59:38.905Z,103372.73
2019-01-04T06:02:07.798Z,103369.67
2019-01-04T06:04:36.674Z,103359.61
2019-01-04T06:07:05.651Z,103360.18
2019-01-04T06:09:34.551Z,103362.02
2019-01-04T06:12:03.434Z,103365.56
2019-01-04T06:14:32.336Z,103348.73
2019-01-04T06:17:01.216Z,103350.77
2019-01-04T06:19:30.136Z,103337.86
2019-01-04T06:21:59.031Z,103333.83
2019-01-04T06:24:27.934Z,103340.20
2019-01-04T06:26:56.852Z,103343.46
2019-01-04T06:29:25.761Z,103347.03
2019-01-04T06:31:54.645Z,103350.00
2019-01-04T06:34:23.541Z,103358.14
2019-01-04T06:36:52.465Z,103358.33
2019-01-04T06:39:21.342Z,103353.10
2019-01-04T06:41:50.276Z,103354.02
2019-01-04T06:44:19.182Z,103361.70
2019-01-04T06:47:14.318Z,103356.82
2019-01-04T06:49:43.205Z,103359.58
2019-01-04T06:52:12.143Z,103358.23
2019-01-04T06:55:38.817Z,103350.56
2019-01-04T06:58:07.928Z,103359.09
2019-01-04T07:00:36.754Z,103372.39
2019-01-04T07:03:05.667Z,103376.11
2019-01-04T07:05:34.580Z,103379.41
2019-01-04T07:08:03.523Z,103386.97
2019-01-04T07:10:32.430Z,103387.89
2019-01-04T07:13:01.324Z,103386.13
2019-01-04T07:15:30.209Z,103379.94
2019-01-04T07:17:59.075Z,103384.02
2019-01-04T07:20:27.991Z,103388.19
2019-01-04T07:22:56.877Z,103387.80
2019-01-04T07:25:25.809Z,103392.67
2019-01-04T07:27:54.702Z,103383.77
2019-01-04T07:30:23.564Z,103389.07
2019-01-04T07:32:52.472Z,103381.16
2019-01-04T07:35:21.363Z,103394.23
2019-01-04T07:37:50.254Z,103403.11
2019-01-04T07:40:19.146Z,103402.61
2019-01-04T07:42:48.060Z,103413.22
2019-01-04T07:45:16.989Z,103418.53
2019-01-04T07:47:45.933Z,103415.91
2019-01-04T07:50:14.812Z,103421.18
2019-01-04T07:52:43.782Z,103413.01
2019-01-04T07:55:13.090Z,103419.66
2019-01-04T07:57:41.992Z,103421.95
2019-01-04T08:00:15.225Z,103424.19
2019-01-04T08:02:45.729Z,103414.63
2019-01-04T08:05:17.188Z,103409.72
2019-01-04T08:07:46.132Z,103401.69
2019-01-04T08:10:15.033Z,103412.94
2019-01-04T08:12:43.954Z,103411.98
2019-01-04T08:15:12.874Z,103415.05
2019-01-04T08:17:41.801Z,103421.17
2019-01-04T08:20:11.138Z,103423.89
2019-01-04T08:22:40.067Z,103415.52
2019-01-04T08:25:09.627Z,103417.74
2019-01-04T08:27:38.717Z,103407.41
2019-01-04T08:30:12.948Z,103394.89
2019-01-04T08:32:41.857Z,103397.16
2019-01-04T08:35:10.789Z,103389.55
2019-01-04T08:37:39.709Z,103397.47
2019-01-04T08:40:12.200Z,103400.16
2019-01-04T08:42:41.108Z,103399.42
2019-01-04T08:45:13.881Z,103398.39
2019-01-04T08:47:42.885Z,103386.30
2019-01-04T08:50:12.802Z,103386.72
2019-01-04T08:52:41.717Z,103379.88
2019-01-04T08:55:17.750Z,103373.55
2019-01-04T08:57:46.636Z,103371.63
2019-01-04T09:00:15.611Z,103371.63
2019-01-04T09:02:44.583Z,103366.17
2019-01-04T09:05:13.489Z,103370.36
2019-01-04T09:07:42.404Z,103374.31
2019-01-04T09:10:11.341Z,103362.56
2019-01-04T09:12:40.200Z,103374.77
2019-01-04T09:15:10.395Z,103382.88
2019-01-04T09:17:39.352Z,103382.31
2019-01-04T09:20:10.219Z,103381.81
2019-01-04T09:22:39.353Z,103377.89
2019-01-04T09:25:09.653Z,103371.97
2019-01-04T09:27:38.935Z,103363.75
2019-01-04T09:30:10.395Z,103359.25
2019-01-04T09:32:39.333Z,103351.53
2019-01-04T09:35:08.498Z,103349.34
2019-01-04T09:37:37.393Z,103346.31
2019-01-04T09:40:08.755Z,103349.12
2019-01-04T09:42:37.629Z,103350.72
2019-01-04T09:45:07.871Z,103340.85
2019-01-04T09:47:36.880Z,103329.02
2019-01-04T09:50:06.460Z,103328.97
2019-01-04T09:52:35.347Z,103316.07
2019-01-04T09:55:04.497Z,103314.18
2019-01-04T09:57:33.421Z,103312.00
2019-01-04T10:00:02.369Z,103313.84
2019-01-04T10:02:33.575Z,103308.63
2019-01-04T10:05:08.796Z,103300.44
2019-01-04T10:07:41.596Z,103300.35
2019-01-04T10:10:14.928Z,103305.61
2019-01-04T10:12:51.786Z,103306.99
2019-01-04T10:15:29.162Z,103306.84
2019-01-04T10:17:56.681Z,103305.23
2019-01-04T10:20:28.257Z,103302.16
2019-01-04T10:23:00.669Z,103305.93
2019-01-04T10:25:30.167Z,103299.97
2019-01-04T10:28:03.040Z,103298.08
2019-01-04T10:30:32.489Z,103289.98
2019-01-04T10:33:12.933Z,103283.17
2019-01-04T10:35:42.496Z,103283.34
2019-01-04T10:39:07.845Z,103272.95
2019-01-04T10:41:47.099Z,103262.66
2019-01-04T10:44:22.759Z,103252.73
2019-01-04T10:46:54.130Z,103247.36
2019-01-04T10:49:27.103Z,103242.23
2019-01-04T10:52:02.322Z,103230.13
2019-01-04T10:54:34.677Z,103231.48
2019-01-04T10:57:05.155Z,103233.95
2019-01-04T10:59:37.251Z,103238.23
2019-01-04T11:02:11.468Z,103223.72
2019-01-04T11:04:41.369Z,103226.83
2019-01-04T11:07:10.754Z,103223.38
2019-01-04T11:09:42.318Z,103225.06
2019-01-04T11:12:13.007Z,103224.97
2019-01-04T11:14:45.197Z,103217.32
2019-01-04T11:17:14.574Z,103206.97
2019-01-04T11:19:43.856Z,103217.41
2019-01-04T11:22:49.665Z,103209.66
2019-01-04T11:26:02.672Z,103200.77
2019-01-04T11:28:49.738Z,103208.45
2019-01-04T11:31:41.750Z,103197.98
2019-01-04T11:34:32.630Z,103195.47
2019-01-04T11:37:43.843Z,103193.98
2019-01-04T11:40:49.709Z,103202.05
2019-01-04T11:44:05.691Z,103199.39
2019-01-04T11:46:52.397Z,103206.49
2019-01-04T11:50:05.668Z,103192.23
2019-01-04T11:52:42.263Z,103188.20
2019-01-04T11:55:18.390Z,103190.42
2019-01-04T11:57:46.150Z,103185.55
2019-01-04T12:00:15.955Z,103190.05
2019-01-04T12:02:45.445Z,103191.34
2019-01-04T12:05:15.925Z,103194.59
2019-01-04T12:07:49.161Z,103193.20
2019-01-04T12:10:20.975Z,103186.28
2019-01-04T12:12:55.215Z,103182.90
2019-01-04T12:15:27.920Z,103176.08
2019-01-04T12:17:59.749Z,103167.96
2019-01-04T12:20:31.855Z,103161.60
2019-01-04T12:23:01.518Z,103151.77
2019-01-04T12:25:36.919Z,103136.45
2019-01-04T12:28:06.353Z,103123.98
2019-01-04T12:30:39.154Z,103119.30
2019-01-04T12:33:08.525Z,103123.23
2019-01-04T12:35:37.860Z,103128.25
2019-01-04T12:38:07.429Z,103135.95
2019-01-04T12:40:42.174Z,103131.77
2019-01-04T12:43:11.714Z,103131.41
2019-01-04T12:45:41.203Z,103125.56
2019-01-04T12:48:15.215Z,103125.00
2019-01-04T12:50:44.504Z,103127.73
2019-01-04T12:53:13.432Z,103136.69
2019-01-04T12:55:42.347Z,103136.28
2019-01-04T12:58:11.226Z,103136.30
2019-01-04T13:00:40.141Z,103134.08
2019-01-04T13:03:09.251Z,103126.34
2019-01-04T13:05:38.167Z,103122.39
2019-01-04T13:08:07.125Z,103130.57
2019-01-04T13:10:35.964Z,103117.53
2019-01-04T13:13:04.917Z,103119.85
2019-01-04T13:15:33.798Z,103120.41
2019-01-04T13:18:02.723Z,103132.59
2019-01-04T13:20:31.665Z,103130.19
2019-01-04T13:23:00.598Z,103136.35
2019-01-04T13:25:29.547Z,103126.15
2019-01-04T13:27:58.461Z,103126.10
2019-01-04T13:30:27.372Z,103122.58
2019-01-04T13:32:56.326Z,103114.60
2019-01-04T13:35:25.203Z,103108.20
2019-01-04T13:37:54.142Z,103096.00
2019-01-04T13:40:23.035Z,103089.42
2019-01-04T13:42:51.928Z,103088.85
2019-01-04T13:45:20.831Z,103084.45
2019-01-04T13:47:49.759Z,103088.44
2019-01-04T13:50:18.642Z,103087.09
2019-01-04T13:52:47.619Z,103074.56
2019-01-04T13:55:16.521Z,103073.69
2019-01-04T13:57:45.420Z,103068.05
2019-01-04T14:00:14.346Z,103069.25
2019-01-04T14:02:43.735Z,103065.95
2019-01-04T14:05:17.885Z,103065.41
2019-01-04T14:07:42.681Z,103065.24
2019-01-04T14:10:13.917Z,103079.22
2019-01-04T14:12:45.270Z,103075.18
2019-01-04T14:15:14.078Z,103068.59
2019-01-04T14:17:43.704Z,103067.23
2019-01-04T14:20:14.206Z,103072.48
2019-01-04T14:22:51.359Z,103070.55
2019-01-04T14:25:22.783Z,103072.09
2019-01-04T14:27:57.469Z,103071.07
2019-01-04T14:30:30.192Z,103082.77
2019-01-04T14:33:07.079Z,103083.13
2019-01-04T14:35:52.714Z,103090.69
2019-01-04T14:38:23.874Z,103083.42
2019-01-04T14:40:53.333Z,103090.09
2019-01-04T14:43:30.139Z,103081.34
2019-01-04T14:46:02.008Z,103069.03
2019-01-04T14:48:33.842Z,103064.58
2019-01-04T14:51:03.105Z,103062.81
2019-01-04T14:53:34.978Z,103065.82
2019-01-04T14:56:05.684Z,103057.39
2019-01-04T14:58:40.496Z,103063.15
2019-01-04T15:01:09.925Z,103075.37
2019-01-04T15:03:42.277Z,103093.14
2019-01-04T15:06:15.454Z,103085.16
2019-01-04T15:08:45.161Z,103074.02
2019-01-04T15:11:14.631Z,103071.74
2019-01-04T15:13:43.972Z,103074.02
2019-01-04T15:16:13.396Z,103075.70
2019-01-04T15:18:42.778Z,103074.23
2019-01-04T15:21:13.097Z,103069.39
2019-01-04T15:23:41.848Z,103066.72
2019-01-04T15:26:10.881Z,103072.75
2019-01-04T15:28:39.816Z,103063.59
2019-01-04T15:31:08.827Z,103063.23
2019-01-04T15:33:37.787Z,103062.30
2019-01-04T15:36:06.717Z,103059.14
2019-01-04T15:38:36.290Z,103056.58
2019-01-04T15:41:04.609Z,103070.60
2019-01-04T15:43:33.457Z,103067.30
2019-01-04T15:46:02.374Z,103068.05
2019-01-04T15:48:31.414Z,103065.66
2019-01-04T15:51:00.302Z,103058.98
2019-01-04T15:53:29.218Z,103061.86
2019-01-04T15:55:58.140Z,103068.17
2019-01-04T15:58:27.052Z,103077.95
2019-01-04T16:00:56.008Z,103077.77
2019-01-04T16:03:24.897Z,103077.72
2019-01-04T16:05:53.779Z,103087.50
2019-01-04T16:08:22.703Z,103072.75
2019-01-04T16:10:51.637Z,103070.94
2019-01-04T16:13:20.591Z,103070.87
2019-01-04T16:15:49.476Z,103069.12
2019-01-04T16:18:18.404Z,103070.74
2019-01-04T16:20:47.330Z,103061.56
2019-01-04T16:23:16.245Z,103063.84
2019-01-04T16:25:45.124Z,103069.72
2019-01-04T16:28:14.078Z,103073.09
2019-01-04T16:30:42.981Z,103071.47
2019-01-04T16:33:12.787Z,103065.72
2019-01-04T16:35:40.880Z,103063.83
2019-01-04T16:38:09.774Z,103062.78
2019-01-04T16:40:38.694Z,103059.81
2019-01-04T16:43:07.600Z,103058.98
2019-01-04T16:45:36.494Z,103063.95
2019-01-04T16:48:05.450Z,103057.75
2019-01-04T16:50:34.377Z,103059.45
2019-01-04T16:53:03.309Z,103063.39
2019-01-04T16:55:32.211Z,103058.88
2019-01-04T16:58:01.116Z,103054.39
2019-01-04T17:00:30.030Z,103053.36
2019-01-04T17:02:59.046Z,103044.54
2019-01-04T17:05:28.042Z,103051.49
2019-01-04T17:07:57.135Z,103059.47
2019-01-04T17:10:26.167Z,103056.00
2019-01-04T17:12:55.303Z,103054.33
2019-01-04T17:15:24.205Z,103046.77
2019-01-04T17:17:53.115Z,103042.48
2019-01-04T17:20:55.799Z,103037.14
2019-01-04T17:23:30.701Z,103029.83
2019-01-04T17:26:01.063Z,103027.55
2019-01-04T17:28:30.741Z,103029.83
2019-01-04T17:31:00.155Z,103016.09
2019-01-04T17:33:34.604Z,103011.51
2019-01-04T17:36:11.402Z,103011.87
2019-01-04T17:38:40.919Z,103010.00
2019-01-04T17:41:14.596Z,102996.67
2019-01-04T17:43:44.328Z,103001.86
2019-01-04T17:46:13.915Z,102998.86
2019-01-04T17:48:46.756Z,102997.57
2019-01-04T17:51:16.031Z,103005.13
2019-01-04T17:53:47.791Z,103002.13
2019-01-04T17:56:17.645Z,103007.00
2019-01-04T17:58:49.628Z,103000.75
2019-01-04T18:01:22.058Z,103001.14
2019-01-04T18:03:54.277Z,103003.77
2019-01-04T18:07:01.165Z,103002.08
2019-01-04T18:09:36.428Z,103001.77
2019-01-04T18:12:06.075Z,103001.77
2019-01-04T18:14:39.025Z,102994.30
2019-01-04T18:17:09.988Z,102995.65
2019-01-04T18:19:39.594Z,102995.65
2019-01-04T18:22:11.973Z,102991.61
2019-01-04T18:24:38.803Z,102987.62
2019-01-04T18:27:10.967Z,102996.06
2019-01-04T18:29:44.486Z,102994.71
2019-01-04T18:32:13.841Z,103002.02
2019-01-04T18:34:43.730Z,102992.70
2019-01-04T18:37:13.387Z,102998.09
2019-01-04T18:39:46.086Z,103002.95
2019-01-04T18:42:15.603Z,102996.63
2019-01-04T18:44:46.822Z,102999.80
2019-01-04T18:47:16.622Z,103001.96
2019-01-04T18:49:45.972Z,103006.47
2019-01-04T18:52:15.332Z,102990.62
2019-01-04T18:54:47.547Z,102994.55
2019-01-04T18:57:16.408Z,103001.41
2019-01-04T18:59:45.394Z,102993.32
2019-01-04T19:02:14.275Z,102998.71
2019-01-04T19:04:43.194Z,102996.78
2019-01-04T19:07:12.085Z,102996.02
2019-01-04T19:09:40.988Z,102992.33
2019-01-04T19:12:09.900Z,102993.20
2019-01-04T19:14:39.815Z,102986.01
2019-01-04T19:17:08.783Z,102992.27
2019-01-04T19:19:37.663Z,102995.80
2019-01-04T19:22:06.610Z,102997.31
2019-01-04T19:24:35.517Z,103001.23
2019-01-04T19:27:04.523Z,102997.25
2019-01-04T19:29:33.430Z,102997.78
2019-01-04T19:32:02.386Z,102998.19
2019-01-04T19:34:31.367Z,102997.72
2019-01-04T19:37:00.233Z,102997.72
2019-01-04T19:39:29.178Z,103007.15
2019-01-04T19:41:58.092Z,103000.36
2019-01-04T19:44:27.084Z,103009.94
2019-01-04T19:46:55.999Z,103012.05
2019-01-04T19:49:25.838Z,103013.45
2019-01-04T19:51:54.783Z,103007.48
2019-01-04T19:54:23.686Z,103008.69
2019-01-04T19:56:52.610Z,103005.90
2019-01-04T19:59:21.541Z,103013.41
2019-01-04T20:01:50.540Z,103011.53
2019-01-04T20:04:19.499Z,103013.82
2019-01-04T20:07:45.830Z,103004.88
2019-01-04T20:11:25.189Z,103006.47
2019-01-04T20:15:07.515Z,103003.98
2019-01-04T20:18:05.233Z,102997.47
2019-01-04T20:20:56.696Z,103003.16
2019-01-04T20:23:46.699Z,103003.63
2019-01-04T20:26:39.405Z,103002.75
2019-01-04T20:29:27.587Z,103001.20
2019-01-04T20:32:14.311Z,103000.47
2019-01-04T20:35:00.815Z,103001.02
2019-01-04T20:38:01.156Z,103005.87
2019-01-04T20:40:47.918Z,102999.41
2019-01-04T20:43:38.618Z,103002.42
2019-01-04T20:46:41.722Z,102998.27
2019-01-04T20:49:38.418Z,102998.79
2019-01-04T20:52:26.470Z,102991.11
2019-01-04T20:55:18.118Z,102994.28
2019-01-04T20:58:16.386Z,102997.73
2019-01-04T21:01:03.046Z,102991.34
2019-01-04T21:03:45.290Z,102978.98
2019-01-04T21:06:32.515Z,102978.18
2019-01-04T21:09:37.637Z,102981.28
2019-01-04T21:12:24.269Z,102974.37
2019-01-04T21:15:18.530Z,102980.41
2019-01-04T21:18:24.830Z,102971.63
2019-01-04T21:21:31.395Z,102974.31
2019-01-04T21:24:21.206Z,102962.56
2019-01-04T21:27:07.767Z,102962.25
2019-01-04T21:29:56.391Z,102965.36
2019-01-04T21:32:57.176Z,102955.03
2019-01-04T21:35:45.413Z,102959.80
2019-01-04T21:38:34.151Z,102959.14
2019-01-04T21:41:21.013Z,102957.73
2019-01-04T21:44:18.801Z,102957.73
2019-01-04T21:47:09.614Z,102957.73
2019-01-04T21:50:05.853Z,102957.16
2019-01-04T21:53:02.083Z,102964.12
2019-01-04T21:56:03.350Z,102958.59
2019-01-04T21:58:50.192Z,102951.23
2019-01-04T22:01:36.986Z,102948.35
2019-01-04T22:04:34.772Z,102947.00
2019-01-04T22:07:31.554Z,102940.33
2019-01-04T22:10:12.489Z,102943.34
2019-01-04T22:13:09.550Z,102941.85
2019-01-04T22:16:03.951Z,102938.91
2019-01-04T22:18:57.671Z,102926.95
2019-01-04T22:21:48.367Z,102926.55
2019-01-04T22:24:34.840Z,102913.53
2019-01-04T22:27:22.507Z,102912.28
2019-01-04T22:30:16.306Z,102913.07
2019-01-04T22:33:04.500Z,102906.20
2019-01-04T22:36:01.583Z,102903.98
2019-01-04T22:39:04.442Z,102902.28
2019-01-04T22:42:10.570Z,102905.45
2019-01-04T22:45:13.603Z,102900.22
2019-01-04T22:48:00.375Z,102906.02
2019-01-04T22:50:46.967Z,102898.40
2019-01-04T22:53:33.249Z,102896.98
2019-01-04T22:56:16.358Z,102893.95
2019-01-04T22:59:00.110Z,102895.02
2019-01-04T23:01:53.899Z,102887.14
2019-01-04T23:04:48.536Z,102890.78
2019-01-04T23:07:31.750Z,102887.62
2019-01-04T23:10:18.610Z,102882.06
2019-01-04T23:13:15.925Z,102874.45
2019-01-04T23:16:06.540Z,102867.17
2019-01-04T23:19:06.553Z,102862.25
2019-01-04T23:22:36.180Z,102863.95
2019-01-04T23:25:42.690Z,102859.08
2019-01-04T23:28:28.814Z,102859.77
2019-01-04T23:31:15.393Z,102853.42
2019-01-04T23:34:03.522Z,102853.36
2019-01-04T23:36:57.820Z,102854.45
2019-01-04T23:39:45.895Z,102859.58
2019-01-04T23:42:32.583Z,102859.92
2019-01-04T23:45:19.108Z,102859.52
2019-01-04T23:48:17.899Z,102863.43
2019-01-04T23:51:04.433Z,102864.98
2019-01-04T23:53:56.007Z,102859.20
2019-01-04T23:56:57.256Z,102854.82
2019-01-04T23:59:51.252Z,102848.20
